Starke, FL

6:07 AM EDT on September 19, 2014 (GMT -0400)
North Keystone | Change Station
CLOSE
Current Station
Personal Weather Station
Location: Keystone Heights, FL
Elevation: 174 ft
Nearby Weather Stations

Elev 174 ft 29.83 °N, 81.98 °W | Updated 5 seconds ago

Partly Cloudy
Partly Cloudy
69.1 °F
Feels Like 69.1 °F
N
0.0
Wind Variable Wind from SSW
Gusts 0.0 mph

Today
High -- | Low -- °F
--% Chance of Precip.
Yesterday
High -- | Low -- °F
Precip. -- in
7:15 AM 7:28 PM
Waning Crescent, 20% visible
Pressure 29.95 in
Visibility 8.0 miles
Clouds Clear
Dew Point 60 °F
Humidity 72%
Rainfall 0.00 in
Snow Depth Not available.
UV 0 out of 12
Pollen 8.10 out of 12
Air Quality Not available.
Flu Activity Not available.
METAR KVQQ 190955Z AUTO 00000KT 8SM CLR 20/20 A2995 RMK AO2

More Conditions Fewer Conditions

Pressure 29.95 in
Visibility 8.0 miles
Clouds Clear
Dew Point 60 °F
Humidity 72%
Rainfall 0.00 in
Snow Depth Not available.
UV 0 out of 12
Pollen 8.10 out of 12
Air Quality Not available.
Flu Activity Not available.
METAR KVQQ 190955Z AUTO 00000KT 8SM CLR 20/20 A2995 RMK AO2

More Conditions Fewer Conditions

10-Day Weather Forecast

Almanac

Astronomy

Sep. 19, 2014 Rise Set
Actual Time 7:15 AM EDT 7:28 PM EDT
Civil Twilight 6:51 AM EDT 7:52 PM EDT
Nautical Twilight 6:23 AM EDT 8:20 PM EDT
Astronomical Twilight 5:54 AM EDT 8:48 PM EDT
Moon 3:13 AM EDT 4:43 PM EDT
Length of Visible Light 13h 01m
Length of Day
12h 13m
Tomorrow will be 1m 47s shorter.
Waning Crescent, 20% of the Moon is Illuminated
Today
Waning Crescent
Sep 24
New
Oct 1
First Quarter
Oct 8
Full
Oct 15
Last Quarter

Today's Extremes

State Highs State Lows

Community

WunderPhotos

Upload Photos

1,754,583 photos uploaded!

Nearby

Snow Depth

Station Depth Elevation
No new snow has been reported.

Earthquake Activity

City Distance Mag. Time & Date
No recent earthquake activity has been reported nearby.
Minimum magnitude displayed is 2.5.

Coastal Water Temperatures

Place Temperature
No Stations Reporting

Nearby Weather Stations